Atherton, Indiana
Current Conditions -  °F | °C
As of 10:53 PM on Wednesday 22 Oct 2014 (Local Time) from KHUF Reporting Station
Clear Clear  
Wind Chill: 40°   Ceiling: Unl
Heat Index: 40°   Visibility: 10mi
Dew Point: 38°   Wind: 3mph
Humidity: 93%   Direction: 40°NE
Pressure: 30.26"   Gusts: NA
Location:  39.6386°N, 87.3045°W
Report Text: KHUF 230253Z 04003KT 10SM CLR 04/03 A3026 RMK AO2 SLP250 T00440033 53003
Loading
Personal Weather Stations






























Interactive Weather Map New forecast layout! Learn more

10-Day Weather Forecast

Advertisements
Track Severe Weather on mobile